sensor_id;sensor_type;location;lat;lon;timestamp;pressure;altitude;pressure_sealevel;temperature;humidity
27014;BME280;14556;52.222;4.510;2022-12-16T00:01:18;100939.13;;;-0.40;100.00
27014;BME280;14556;52.222;4.510;2022-12-16T00:03:50;100938.41;;;-0.42;100.00
27014;BME280;14556;52.222;4.510;2022-12-16T00:06:21;100936.75;;;-0.43;100.00
27014;BME280;14556;52.222;4.510;2022-12-16T00:08:48;100930.06;;;-0.47;100.00
27014;BME280;14556;52.222;4.510;2022-12-16T00:11:17;100942.41;;;-0.47;100.00
27014;BME280;14556;52.222;4.510;2022-12-16T00:13:43;100933.78;;;-0.50;100.00
27014;BME280;14556;52.222;4.510;2022-12-16T00:16:12;100910.66;;;-0.67;100.00
27014;BME280;14556;52.222;4.510;2022-12-16T00:18:39;100929.84;;;-0.55;100.00
27014;BME280;14556;52.222;4.510;2022-12-16T00:21:06;100931.19;;;-0.61;100.00
27014;BME280;14556;52.222;4.510;2022-12-16T00:23:33;100940.03;;;-0.62;100.00
27014;BME280;14556;52.222;4.510;2022-12-16T00:26:01;100933.94;;;-0.63;100.00
27014;BME280;14556;52.222;4.510;2022-12-16T00:28:28;100938.25;;;-0.62;100.00
27014;BME280;14556;52.222;4.510;2022-12-16T00:30:55;100938.59;;;-0.66;100.00
27014;BME280;14556;52.222;4.510;2022-12-16T00:33:23;100942.78;;;-0.64;100.00
27014;BME280;14556;52.222;4.510;2022-12-16T00:35:51;100952.44;;;-0.64;100.00
27014;BME280;14556;52.222;4.510;2022-12-16T00:38:19;100953.41;;;-0.65;100.00
27014;BME280;14556;52.222;4.510;2022-12-16T00:40:46;100956.03;;;-0.65;100.00
27014;BME280;14556;52.222;4.510;2022-12-16T00:43:13;100957.81;;;-0.66;100.00
27014;BME280;14556;52.222;4.510;2022-12-16T00:45:39;100952.09;;;-0.71;100.00
27014;BME280;14556;52.222;4.510;2022-12-16T00:48:06;100955.19;;;-0.66;100.00
27014;BME280;14556;52.222;4.510;2022-12-16T00:50:34;100951.72;;;-0.66;100.00
27014;BME280;14556;52.222;4.510;2022-12-16T00:53:01;100955.31;;;-0.67;100.00
27014;BME280;14556;52.222;4.510;2022-12-16T00:55:28;100954.72;;;-0.71;100.00
27014;BME280;14556;52.222;4.510;2022-12-16T00:57:55;100959.72;;;-0.68;100.00
27014;BME280;14556;52.222;4.510;2022-12-16T01:00:22;100961.75;;;-0.71;100.00
27014;BME280;14556;52.222;4.510;2022-12-16T01:02:49;100957.13;;;-0.79;100.00
27014;BME280;14556;52.222;4.510;2022-12-16T01:05:20;100969.91;;;-0.75;100.00
27014;BME280;14556;52.222;4.510;2022-12-16T01:07:47;100962.13;;;-0.76;100.00
27014;BME280;14556;52.222;4.510;2022-12-16T01:10:13;100970.16;;;-0.78;100.00
27014;BME280;14556;52.222;4.510;2022-12-16T01:12:40;100964.28;;;-0.81;100.00
27014;BME280;14556;52.222;4.510;2022-12-16T01:15:08;100969.66;;;-0.83;100.00
27014;BME280;14556;52.222;4.510;2022-12-16T01:17:35;100965.47;;;-0.86;100.00
27014;BME280;14556;52.222;4.510;2022-12-16T01:20:02;100966.69;;;-0.90;100.00
27014;BME280;14556;52.222;4.510;2022-12-16T01:22:30;100968.22;;;-0.87;100.00
27014;BME280;14556;52.222;4.510;2022-12-16T01:24:58;100971.09;;;-0.90;100.00
27014;BME280;14556;52.222;4.510;2022-12-16T01:27:26;100979.09;;;-0.92;100.00
27014;BME280;14556;52.222;4.510;2022-12-16T01:29:54;100974.09;;;-0.95;100.00
27014;BME280;14556;52.222;4.510;2022-12-16T01:32:21;100983.50;;;-0.92;100.00
27014;BME280;14556;52.222;4.510;2022-12-16T01:34:52;100983.50;;;-0.92;100.00
27014;BME280;14556;52.222;4.510;2022-12-16T01:37:22;100993.19;;;-0.93;100.00
27014;BME280;14556;52.222;4.510;2022-12-16T01:39:49;100993.06;;;-0.91;100.00
27014;BME280;14556;52.222;4.510;2022-12-16T01:42:20;101003.72;;;-0.93;100.00
27014;BME280;14556;52.222;4.510;2022-12-16T01:44:49;101008.00;;;-0.92;100.00
27014;BME280;14556;52.222;4.510;2022-12-16T01:47:25;101010.63;;;-0.92;100.00
27014;BME280;14556;52.222;4.510;2022-12-16T01:50:10;101017.66;;;-0.92;100.00
27014;BME280;14556;52.222;4.510;2022-12-16T01:52:45;101010.75;;;-0.93;100.00
27014;BME280;14556;52.222;4.510;2022-12-16T01:55:49;101021.38;;;-0.95;100.00
27014;BME280;14556;52.222;4.510;2022-12-16T01:58:20;101026.75;;;-0.96;100.00
27014;BME280;14556;52.222;4.510;2022-12-16T02:00:49;101024.44;;;-1.01;100.00
27014;BME280;14556;52.222;4.510;2022-12-16T02:03:16;101034.34;;;-1.05;100.00
27014;BME280;14556;52.222;4.510;2022-12-16T02:05:43;101026.59;;;-1.06;100.00
27014;BME280;14556;52.222;4.510;2022-12-16T02:08:20;101032.69;;;-1.06;100.00
27014;BME280;14556;52.222;4.510;2022-12-16T02:11:05;101034.59;;;-1.08;100.00
27014;BME280;14556;52.222;4.510;2022-12-16T02:13:56;101042.47;;;-1.08;100.00
27014;BME280;14556;52.222;4.510;2022-12-16T02:16:46;101041.88;;;-1.12;100.00
27014;BME280;14556;52.222;4.510;2022-12-16T02:25:07;101032.78;;;-1.19;100.00
27014;BME280;14556;52.222;4.510;2022-12-16T02:30:50;101046.25;;;-1.24;100.00
27014;BME280;14556;52.222;4.510;2022-12-16T02:41:18;101049.75;;;-1.12;100.00
27014;BME280;14556;52.222;4.510;2022-12-16T02:44:03;101059.44;;;-1.01;100.00
27014;BME280;14556;52.222;4.510;2022-12-16T02:46:32;101054.06;;;-0.99;100.00
27014;BME280;14556;52.222;4.510;2022-12-16T02:51:39;101059.56;;;-1.02;100.00
27014;BME280;14556;52.222;4.510;2022-12-16T02:54:08;101057.53;;;-0.99;100.00
27014;BME280;14556;52.222;4.510;2022-12-16T03:01:53;101066.81;;;-1.06;100.00
27014;BME280;14556;52.222;4.510;2022-12-16T03:04:42;101069.69;;;-1.09;100.00
27014;BME280;14556;52.222;4.510;2022-12-16T03:07:13;101073.50;;;-1.13;100.00
27014;BME280;14556;52.222;4.510;2022-12-16T03:09:41;101082.66;;;-1.19;100.00
27014;BME280;14556;52.222;4.510;2022-12-16T03:12:12;101076.22;;;-1.26;100.00
27014;BME280;14556;52.222;4.510;2022-12-16T03:14:42;101088.13;;;-1.34;100.00
27014;BME280;14556;52.222;4.510;2022-12-16T03:17:10;101091.06;;;-1.38;100.00
27014;BME280;14556;52.222;4.510;2022-12-16T03:19:40;101086.28;;;-1.44;100.00
27014;BME280;14556;52.222;4.510;2022-12-16T03:22:16;101087.44;;;-1.49;100.00
27014;BME280;14556;52.222;4.510;2022-12-16T03:24:44;101083.16;;;-1.50;100.00
27014;BME280;14556;52.222;4.510;2022-12-16T03:27:15;101082.31;;;-1.50;100.00
27014;BME280;14556;52.222;4.510;2022-12-16T03:29:52;101084.22;;;-1.52;100.00
27014;BME280;14556;52.222;4.510;2022-12-16T03:35:06;101094.22;;;-1.58;100.00
27014;BME280;14556;52.222;4.510;2022-12-16T03:37:39;101099.69;;;-1.61;100.00
27014;BME280;14556;52.222;4.510;2022-12-16T03:40:08;101098.13;;;-1.63;100.00
27014;BME280;14556;52.222;4.510;2022-12-16T03:42:36;101100.88;;;-1.65;100.00
27014;BME280;14556;52.222;4.510;2022-12-16T03:45:06;101104.88;;;-1.72;100.00
27014;BME280;14556;52.222;4.510;2022-12-16T03:47:33;101107.63;;;-1.74;100.00
27014;BME280;14556;52.222;4.510;2022-12-16T03:50:00;101109.84;;;-1.80;100.00
27014;BME280;14556;52.222;4.510;2022-12-16T03:52:26;101109.56;;;-1.89;100.00
27014;BME280;14556;52.222;4.510;2022-12-16T03:54:53;101106.94;;;-1.89;100.00
27014;BME280;14556;52.222;4.510;2022-12-16T03:57:20;101103.78;;;-1.94;100.00
27014;BME280;14556;52.222;4.510;2022-12-16T03:59:47;101112.84;;;-1.98;100.00
27014;BME280;14556;52.222;4.510;2022-12-16T04:02:13;101115.66;;;-2.01;100.00
27014;BME280;14556;52.222;4.510;2022-12-16T04:04:40;101119.59;;;-2.07;100.00
27014;BME280;14556;52.222;4.510;2022-12-16T04:07:06;101116.34;;;-2.11;100.00
27014;BME280;14556;52.222;4.510;2022-12-16T04:09:51;101120.09;;;-2.15;100.00
27014;BME280;14556;52.222;4.510;2022-12-16T04:12:18;101119.38;;;-2.17;100.00
27014;BME280;14556;52.222;4.510;2022-12-16T04:15:05;101122.44;;;-2.23;100.00
27014;BME280;14556;52.222;4.510;2022-12-16T04:18:13;101125.78;;;-2.21;100.00
27014;BME280;14556;52.222;4.510;2022-12-16T04:20:58;101127.69;;;-2.23;100.00
27014;BME280;14556;52.222;4.510;2022-12-16T04:23:48;101124.75;;;-2.32;100.00
27014;BME280;14556;52.222;4.510;2022-12-16T04:26:35;101123.28;;;-2.36;100.00
27014;BME280;14556;52.222;4.510;2022-12-16T04:29:22;101121.84;;;-2.40;100.00
27014;BME280;14556;52.222;4.510;2022-12-16T04:31:49;101124.66;;;-2.43;100.00
27014;BME280;14556;52.222;4.510;2022-12-16T04:34:16;101116.38;;;-2.50;100.00
27014;BME280;14556;52.222;4.510;2022-12-16T04:36:54;101133.88;;;-2.50;100.00
27014;BME280;14556;52.222;4.510;2022-12-16T04:39:39;101129.38;;;-2.48;100.00
27014;BME280;14556;52.222;4.510;2022-12-16T04:42:24;101129.59;;;-2.51;100.00
27014;BME280;14556;52.222;4.510;2022-12-16T04:45:10;101145.50;;;-2.41;100.00
27014;BME280;14556;52.222;4.510;2022-12-16T04:47:55;101151.19;;;-2.35;100.00
27014;BME280;14556;52.222;4.510;2022-12-16T04:50:40;101139.63;;;-2.45;100.00
27014;BME280;14556;52.222;4.510;2022-12-16T04:53:25;101161.22;;;-2.41;100.00
27014;BME280;14556;52.222;4.510;2022-12-16T04:56:11;101161.66;;;-2.35;100.00
27014;BME280;14556;52.222;4.510;2022-12-16T04:58:56;101163.56;;;-2.37;100.00
27014;BME280;14556;52.222;4.510;2022-12-16T05:01:41;101172.34;;;-2.38;100.00
27014;BME280;14556;52.222;4.510;2022-12-16T05:04:26;101153.16;;;-2.51;100.00
27014;BME280;14556;52.222;4.510;2022-12-16T05:07:11;101177.78;;;-2.41;100.00
27014;BME280;14556;52.222;4.510;2022-12-16T05:10:03;101178.53;;;-2.39;100.00
27014;BME280;14556;52.222;4.510;2022-12-16T05:12:51;101176.13;;;-2.42;100.00
27014;BME280;14556;52.222;4.510;2022-12-16T05:15:37;101178.84;;;-2.44;100.00
27014;BME280;14556;52.222;4.510;2022-12-16T05:18:21;101191.22;;;-2.46;100.00
27014;BME280;14556;52.222;4.510;2022-12-16T05:21:06;101187.13;;;-2.50;100.00
27014;BME280;14556;52.222;4.510;2022-12-16T05:23:51;101194.25;;;-2.52;100.00
27014;BME280;14556;52.222;4.510;2022-12-16T05:26:37;101192.69;;;-2.55;100.00
27014;BME280;14556;52.222;4.510;2022-12-16T05:29:22;101193.31;;;-2.51;100.00
27014;BME280;14556;52.222;4.510;2022-12-16T05:32:08;101199.72;;;-2.42;100.00
27014;BME280;14556;52.222;4.510;2022-12-16T05:34:52;101199.59;;;-2.40;100.00
27014;BME280;14556;52.222;4.510;2022-12-16T05:37:37;101207.16;;;-2.36;100.00
27014;BME280;14556;52.222;4.510;2022-12-16T05:40:22;101206.31;;;-2.36;100.00
27014;BME280;14556;52.222;4.510;2022-12-16T05:43:07;101207.88;;;-2.34;100.00
27014;BME280;14556;52.222;4.510;2022-12-16T05:45:52;101212.38;;;-2.36;100.00
27014;BME280;14556;52.222;4.510;2022-12-16T05:48:37;101217.53;;;-2.34;100.00
27014;BME280;14556;52.222;4.510;2022-12-16T05:51:22;101222.22;;;-2.39;100.00
27014;BME280;14556;52.222;4.510;2022-12-16T05:54:07;101221.00;;;-2.34;100.00
27014;BME280;14556;52.222;4.510;2022-12-16T05:56:52;101225.09;;;-2.29;100.00
27014;BME280;14556;52.222;4.510;2022-12-16T05:59:37;101230.94;;;-2.26;100.00
27014;BME280;14556;52.222;4.510;2022-12-16T06:02:22;101218.03;;;-2.29;100.00
27014;BME280;14556;52.222;4.510;2022-12-16T06:05:07;101227.78;;;-2.31;100.00
27014;BME280;14556;52.222;4.510;2022-12-16T06:07:52;101239.13;;;-2.31;100.00
27014;BME280;14556;52.222;4.510;2022-12-16T06:10:38;101233.34;;;-2.36;100.00
27014;BME280;14556;52.222;4.510;2022-12-16T06:13:22;101236.72;;;-2.34;100.00
27014;BME280;14556;52.222;4.510;2022-12-16T06:16:07;101240.81;;;-2.29;100.00
27014;BME280;14556;52.222;4.510;2022-12-16T06:18:53;101252.22;;;-2.31;100.00
27014;BME280;14556;52.222;4.510;2022-12-16T06:21:38;101240.38;;;-2.36;100.00
27014;BME280;14556;52.222;4.510;2022-12-16T06:24:23;101248.84;;;-2.33;100.00
27014;BME280;14556;52.222;4.510;2022-12-16T06:27:08;101250.84;;;-2.36;100.00
27014;BME280;14556;52.222;4.510;2022-12-16T06:29:52;101256.72;;;-2.33;100.00
27014;BME280;14556;52.222;4.510;2022-12-16T06:32:37;101253.19;;;-2.32;100.00
27014;BME280;14556;52.222;4.510;2022-12-16T06:35:22;101258.41;;;-2.32;100.00
27014;BME280;14556;52.222;4.510;2022-12-16T06:38:07;101258.31;;;-2.30;100.00
27014;BME280;14556;52.222;4.510;2022-12-16T06:40:52;101263.34;;;-2.27;100.00
27014;BME280;14556;52.222;4.510;2022-12-16T06:43:37;101258.94;;;-2.26;100.00
27014;BME280;14556;52.222;4.510;2022-12-16T06:46:21;101266.38;;;-2.20;100.00
27014;BME280;14556;52.222;4.510;2022-12-16T06:49:06;101267.13;;;-2.18;100.00
27014;BME280;14556;52.222;4.510;2022-12-16T06:52:08;101272.78;;;-2.11;100.00
27014;BME280;14556;52.222;4.510;2022-12-16T06:54:53;101278.03;;;-2.11;100.00
27014;BME280;14556;52.222;4.510;2022-12-16T06:57:38;101289.56;;;-2.14;100.00
27014;BME280;14556;52.222;4.510;2022-12-16T07:00:25;101280.22;;;-2.18;100.00
27014;BME280;14556;52.222;4.510;2022-12-16T07:03:11;101288.72;;;-2.14;100.00
27014;BME280;14556;52.222;4.510;2022-12-16T07:06:01;101292.31;;;-2.15;100.00
27014;BME280;14556;52.222;4.510;2022-12-16T07:08:46;101284.41;;;-2.28;100.00
27014;BME280;14556;52.222;4.510;2022-12-16T07:11:31;101297.94;;;-2.22;100.00
27014;BME280;14556;52.222;4.510;2022-12-16T07:14:16;101304.97;;;-2.22;100.00
27014;BME280;14556;52.222;4.510;2022-12-16T07:17:00;101305.16;;;-2.25;100.00
27014;BME280;14556;52.222;4.510;2022-12-16T07:19:45;101304.53;;;-2.29;100.00
27014;BME280;14556;52.222;4.510;2022-12-16T07:22:30;101325.41;;;-2.27;100.00
27014;BME280;14556;52.222;4.510;2022-12-16T07:25:27;101324.47;;;-2.26;100.00
27014;BME280;14556;52.222;4.510;2022-12-16T07:28:13;101327.91;;;-2.26;100.00
27014;BME280;14556;52.222;4.510;2022-12-16T07:30:58;101330.53;;;-2.26;100.00
27014;BME280;14556;52.222;4.510;2022-12-16T07:33:43;101342.06;;;-2.28;100.00
27014;BME280;14556;52.222;4.510;2022-12-16T07:36:28;101341.34;;;-2.31;100.00
27014;BME280;14556;52.222;4.510;2022-12-16T07:39:13;101348.16;;;-2.28;100.00
27014;BME280;14556;52.222;4.510;2022-12-16T07:41:58;101354.03;;;-2.24;100.00
27014;BME280;14556;52.222;4.510;2022-12-16T07:44:44;101354.13;;;-2.26;100.00
27014;BME280;14556;52.222;4.510;2022-12-16T07:47:29;101352.34;;;-2.25;100.00
27014;BME280;14556;52.222;4.510;2022-12-16T07:50:14;101352.25;;;-2.24;100.00
27014;BME280;14556;52.222;4.510;2022-12-16T07:52:59;101361.97;;;-2.26;100.00
27014;BME280;14556;52.222;4.510;2022-12-16T07:55:44;101355.06;;;-2.27;100.00
27014;BME280;14556;52.222;4.510;2022-12-16T07:58:29;101361.91;;;-2.24;100.00
27014;BME280;14556;52.222;4.510;2022-12-16T08:01:15;101369.56;;;-2.21;100.00
27014;BME280;14556;52.222;4.510;2022-12-16T08:04:00;101383.41;;;-2.19;100.00
27014;BME280;14556;52.222;4.510;2022-12-16T08:06:45;101384.53;;;-2.23;100.00
27014;BME280;14556;52.222;4.510;2022-12-16T08:09:29;101392.63;;;-2.26;100.00
27014;BME280;14556;52.222;4.510;2022-12-16T08:12:14;101389.25;;;-2.28;100.00
27014;BME280;14556;52.222;4.510;2022-12-16T08:14:59;101389.47;;;-2.32;100.00
27014;BME280;14556;52.222;4.510;2022-12-16T08:17:48;101388.41;;;-2.29;100.00
27014;BME280;14556;52.222;4.510;2022-12-16T08:20:33;101394.06;;;-2.35;100.00
27014;BME280;14556;52.222;4.510;2022-12-16T08:23:20;101397.59;;;-2.36;100.00
27014;BME280;14556;52.222;4.510;2022-12-16T08:26:05;101393.41;;;-2.39;100.00
27014;BME280;14556;52.222;4.510;2022-12-16T08:28:51;101396.13;;;-2.40;100.00
27014;BME280;14556;52.222;4.510;2022-12-16T08:31:55;101395.38;;;-2.43;100.00
27014;BME280;14556;52.222;4.510;2022-12-16T08:34:41;101387.47;;;-2.56;100.00
27014;BME280;14556;52.222;4.510;2022-12-16T08:37:26;101393.25;;;-2.50;100.00
27014;BME280;14556;52.222;4.510;2022-12-16T08:40:11;101394.94;;;-2.49;100.00
27014;BME280;14556;52.222;4.510;2022-12-16T08:43:02;101393.25;;;-2.50;100.00
27014;BME280;14556;52.222;4.510;2022-12-16T08:45:47;101393.25;;;-2.50;100.00
27014;BME280;14556;52.222;4.510;2022-12-16T08:48:32;101405.81;;;-2.56;100.00
27014;BME280;14556;52.222;4.510;2022-12-16T08:51:17;101409.16;;;-2.53;100.00
27014;BME280;14556;52.222;4.510;2022-12-16T08:54:02;101407.31;;;-2.51;100.00
27014;BME280;14556;52.222;4.510;2022-12-16T08:56:48;101416.13;;;-2.52;100.00
27014;BME280;14556;52.222;4.510;2022-12-16T08:59:33;101429.00;;;-2.49;100.00
27014;BME280;14556;52.222;4.510;2022-12-16T09:02:29;101427.03;;;-2.46;100.00
27014;BME280;14556;52.222;4.510;2022-12-16T09:05:15;101433.94;;;-2.45;100.00
27014;BME280;14556;52.222;4.510;2022-12-16T09:08:03;101433.75;;;-2.41;100.00
27014;BME280;14556;52.222;4.510;2022-12-16T09:10:48;101439.53;;;-2.36;100.00
27014;BME280;14556;52.222;4.510;2022-12-16T09:13:33;101435.88;;;-2.34;100.00
27014;BME280;14556;52.222;4.510;2022-12-16T09:16:19;101439.78;;;-2.26;100.00
27014;BME280;14556;52.222;4.510;2022-12-16T09:19:05;101445.69;;;-2.23;100.00
27014;BME280;14556;52.222;4.510;2022-12-16T09:21:50;101446.22;;;-2.17;100.00
27014;BME280;14556;52.222;4.510;2022-12-16T09:24:41;101447.69;;;-2.13;100.00
27014;BME280;14556;52.222;4.510;2022-12-16T09:27:26;101458.53;;;-2.05;100.00
27014;BME280;14556;52.222;4.510;2022-12-16T09:30:11;101449.72;;;-2.04;100.00
27014;BME280;14556;52.222;4.510;2022-12-16T09:32:56;101447.09;;;-2.04;100.00
27014;BME280;14556;52.222;4.510;2022-12-16T09:35:41;101446.03;;;-2.01;100.00
27014;BME280;14556;52.222;4.510;2022-12-16T09:38:26;101462.78;;;-1.89;100.00
27014;BME280;14556;52.222;4.510;2022-12-16T09:48:03;101487.69;;;-1.69;100.00
27014;BME280;14556;52.222;4.510;2022-12-16T09:50:52;101489.34;;;-1.68;100.00
27014;BME280;14556;52.222;4.510;2022-12-16T09:53:39;101492.50;;;-1.63;100.00
27014;BME280;14556;52.222;4.510;2022-12-16T09:56:32;101495.59;;;-1.56;100.00
27014;BME280;14556;52.222;4.510;2022-12-16T09:59:27;101498.41;;;-1.46;100.00
27014;BME280;14556;52.222;4.510;2022-12-16T10:02:15;101498.41;;;-1.46;100.00
27014;BME280;14556;52.222;4.510;2022-12-16T10:05:02;101508.38;;;-1.38;100.00
27014;BME280;14556;52.222;4.510;2022-12-16T10:07:56;101511.47;;;-1.31;100.00
27014;BME280;14556;52.222;4.510;2022-12-16T10:10:58;101511.56;;;-1.20;100.00
27014;BME280;14556;52.222;4.510;2022-12-16T10:13:57;101524.50;;;-1.04;100.00
27014;BME280;14556;52.222;4.510;2022-12-16T10:17:21;101517.34;;;-0.89;100.00
27014;BME280;14556;52.222;4.510;2022-12-16T10:20:16;101517.41;;;-0.64;100.00
27014;BME280;14556;52.222;4.510;2022-12-16T10:23:34;101527.97;;;-0.27;100.00
27014;BME280;14556;52.222;4.510;2022-12-16T10:27:10;101533.28;;;0.70;100.00
27014;BME280;14556;52.222;4.510;2022-12-16T10:29:58;101525.06;;;1.99;100.00
27014;BME280;14556;52.222;4.510;2022-12-16T10:32:48;101532.66;;;2.89;100.00
27014;BME280;14556;52.222;4.510;2022-12-16T10:35:41;101526.97;;;3.67;100.00
27014;BME280;14556;52.222;4.510;2022-12-16T10:38:37;101504.75;;;4.29;100.00
27014;BME280;14556;52.222;4.510;2022-12-16T10:41:26;101481.81;;;4.57;100.00
27014;BME280;14556;52.222;4.510;2022-12-16T10:44:25;101478.63;;;4.64;100.00
27014;BME280;14556;52.222;4.510;2022-12-16T10:47:14;101469.84;;;4.43;100.00
27014;BME280;14556;52.222;4.510;2022-12-16T10:49:59;101477.63;;;4.65;100.00
27014;BME280;14556;52.222;4.510;2022-12-16T10:52:55;101462.78;;;4.82;100.00
27014;BME280;14556;52.222;4.510;2022-12-16T10:58:46;101468.69;;;5.60;100.00
27014;BME280;14556;52.222;4.510;2022-12-16T11:01:35;101472.72;;;6.37;100.00
27014;BME280;14556;52.222;4.510;2022-12-16T11:04:31;101457.31;;;6.76;100.00
27014;BME280;14556;52.222;4.510;2022-12-16T11:13:23;101468.50;;;9.06;100.00
27014;BME280;14556;52.222;4.510;2022-12-16T11:16:12;101462.31;;;9.93;94.44
27014;BME280;14556;52.222;4.510;2022-12-16T11:18:58;101448.56;;;10.20;85.46
27014;BME280;14556;52.222;4.510;2022-12-16T11:21:44;101445.88;;;10.04;75.12
27014;BME280;14556;52.222;4.510;2022-12-16T11:24:29;101442.63;;;10.33;73.11
27014;BME280;14556;52.222;4.510;2022-12-16T11:27:21;101453.53;;;10.08;71.67
27014;BME280;14556;52.222;4.510;2022-12-16T11:32:59;101453.34;;;10.48;72.60
27014;BME280;14556;52.222;4.510;2022-12-16T11:35:52;101460.31;;;9.72;67.20
27014;BME280;14556;52.222;4.510;2022-12-16T11:38:41;101463.84;;;9.09;69.57
27014;BME280;14556;52.222;4.510;2022-12-16T11:41:32;101470.41;;;9.29;70.84
27014;BME280;14556;52.222;4.510;2022-12-16T11:44:22;101461.59;;;8.80;68.53
27014;BME280;14556;52.222;4.510;2022-12-16T11:50:19;101445.50;;;6.70;74.46
27014;BME280;14556;52.222;4.510;2022-12-16T11:56:03;101465.97;;;4.95;86.62
27014;BME280;14556;52.222;4.510;2022-12-16T11:58:51;101473.78;;;4.39;93.56
27014;BME280;14556;52.222;4.510;2022-12-16T12:01:45;101484.53;;;3.88;100.00
27014;BME280;14556;52.222;4.510;2022-12-16T12:04:34;101490.44;;;3.50;100.00
27014;BME280;14556;52.222;4.510;2022-12-16T12:13:59;101475.44;;;3.10;100.00
27014;BME280;14556;52.222;4.510;2022-12-16T12:20:00;101493.31;;;2.96;100.00
27014;BME280;14556;52.222;4.510;2022-12-16T12:22:47;101495.06;;;2.86;100.00
27014;BME280;14556;52.222;4.510;2022-12-16T12:28:53;101497.16;;;2.82;100.00
27014;BME280;14556;52.222;4.510;2022-12-16T12:35:31;101511.41;;;2.70;100.00
27014;BME280;14556;52.222;4.510;2022-12-16T12:38:44;101506.31;;;2.57;100.00
27014;BME280;14556;52.222;4.510;2022-12-16T12:47:37;101519.84;;;2.42;100.00
27014;BME280;14556;52.222;4.510;2022-12-16T12:51:02;101509.53;;;2.39;100.00
27014;BME280;14556;52.222;4.510;2022-12-16T12:57:00;101523.38;;;2.52;100.00
27014;BME280;14556;52.222;4.510;2022-12-16T13:03:00;101513.94;;;2.50;100.00
27014;BME280;14556;52.222;4.510;2022-12-16T13:05:49;101508.66;;;2.50;100.00
27014;BME280;14556;52.222;4.510;2022-12-16T13:11:19;101516.84;;;2.47;100.00
27014;BME280;14556;52.222;4.510;2022-12-16T13:17:22;101530.22;;;2.34;100.00
27014;BME280;14556;52.222;4.510;2022-12-16T13:26:14;101528.31;;;2.24;100.00
27014;BME280;14556;52.222;4.510;2022-12-16T13:32:02;101529.41;;;2.22;100.00
27014;BME280;14556;52.222;4.510;2022-12-16T13:37:59;101548.63;;;2.12;100.00
27014;BME280;14556;52.222;4.510;2022-12-16T13:41:00;101551.66;;;2.08;100.00
27014;BME280;14556;52.222;4.510;2022-12-16T13:43:56;101535.38;;;1.91;100.00
27014;BME280;14556;52.222;4.510;2022-12-16T13:46:53;101549.28;;;2.04;100.00
27014;BME280;14556;52.222;4.510;2022-12-16T13:49:52;101549.28;;;2.04;100.00
27014;BME280;14556;52.222;4.510;2022-12-16T13:52:59;101553.00;;;2.02;100.00
27014;BME280;14556;52.222;4.510;2022-12-16T13:55:58;101547.34;;;2.07;100.00
27014;BME280;14556;52.222;4.510;2022-12-16T13:58:47;101554.31;;;2.08;100.00
27014;BME280;14556;52.222;4.510;2022-12-16T14:04:34;101551.31;;;2.01;100.00
27014;BME280;14556;52.222;4.510;2022-12-16T14:07:21;101564.78;;;1.98;100.00
27014;BME280;14556;52.222;4.510;2022-12-16T14:13:26;101579.03;;;1.95;100.00
27014;BME280;14556;52.222;4.510;2022-12-16T14:16:30;101580.50;;;1.88;100.00
27014;BME280;14556;52.222;4.510;2022-12-16T14:25:28;101591.31;;;1.73;100.00
27014;BME280;14556;52.222;4.510;2022-12-16T14:28:26;101591.66;;;1.68;100.00
27014;BME280;14556;52.222;4.510;2022-12-16T14:31:16;101603.31;;;1.66;100.00
27014;BME280;14556;52.222;4.510;2022-12-16T14:34:03;101600.44;;;1.58;100.00
27014;BME280;14556;52.222;4.510;2022-12-16T14:36:48;101598.03;;;1.54;100.00
27014;BME280;14556;52.222;4.510;2022-12-16T14:39:39;101616.13;;;1.48;100.00
27014;BME280;14556;52.222;4.510;2022-12-16T14:42:26;101624.03;;;1.48;100.00
27014;BME280;14556;52.222;4.510;2022-12-16T14:45:33;101630.41;;;1.45;100.00
27014;BME280;14556;52.222;4.510;2022-12-16T14:51:27;101649.19;;;1.40;100.00
27014;BME280;14556;52.222;4.510;2022-12-16T14:54:19;101646.44;;;1.30;100.00
27014;BME280;14556;52.222;4.510;2022-12-16T14:57:16;101649.66;;;1.23;100.00
27014;BME280;14556;52.222;4.510;2022-12-16T15:02:55;101659.78;;;1.04;100.00
27014;BME280;14556;52.222;4.510;2022-12-16T15:05:42;101660.47;;;0.95;100.00
27014;BME280;14556;52.222;4.510;2022-12-16T15:08:31;101670.41;;;0.91;100.00
27014;BME280;14556;52.222;4.510;2022-12-16T15:11:20;101678.28;;;0.80;100.00
27014;BME280;14556;52.222;4.510;2022-12-16T15:14:11;101676.91;;;0.74;100.00
27014;BME280;14556;52.222;4.510;2022-12-16T15:17:00;101677.19;;;0.58;100.00
27014;BME280;14556;52.222;4.510;2022-12-16T15:19:49;101683.03;;;0.50;100.00
27014;BME280;14556;52.222;4.510;2022-12-16T15:22:35;101683.47;;;0.44;100.00
27014;BME280;14556;52.222;4.510;2022-12-16T15:25:24;101684.03;;;0.36;100.00
27014;BME280;14556;52.222;4.510;2022-12-16T15:28:38;101687.41;;;0.25;100.00
27014;BME280;14556;52.222;4.510;2022-12-16T15:31:29;101693.03;;;0.07;100.00
27014;BME280;14556;52.222;4.510;2022-12-16T15:34:27;101712.00;;;-0.01;100.00
27014;BME280;14556;52.222;4.510;2022-12-16T15:37:22;101701.69;;;-0.17;100.00
27014;BME280;14556;52.222;4.510;2022-12-16T15:43:04;101713.06;;;-0.29;100.00
27014;BME280;14556;52.222;4.510;2022-12-16T15:45:49;101712.31;;;-0.31;100.00
27014;BME280;14556;52.222;4.510;2022-12-16T15:48:35;101710.00;;;-0.49;100.00
27014;BME280;14556;52.222;4.510;2022-12-16T15:51:38;101725.66;;;-0.61;100.00
27014;BME280;14556;52.222;4.510;2022-12-16T15:54:26;101729.34;;;-0.63;100.00
27014;BME280;14556;52.222;4.510;2022-12-16T15:57:32;101718.69;;;-0.75;100.00
27014;BME280;14556;52.222;4.510;2022-12-16T16:00:26;101736.34;;;-0.77;100.00
27014;BME280;14556;52.222;4.510;2022-12-16T16:03:39;101738.66;;;-0.85;100.00
27014;BME280;14556;52.222;4.510;2022-12-16T16:06:25;101744.44;;;-0.80;100.00
27014;BME280;14556;52.222;4.510;2022-12-16T16:09:14;101740.78;;;-0.77;100.00